sensor_id;sensor_type;location;lat;lon;timestamp;noise_LAeq;noise_LA_min;noise_LA_max;noise_LA01;noise_LA95
67310;Laerm;65444;51.438;5.982;2023-05-10T00:00:06;39.22;34.52;53.78;;
67310;Laerm;65444;51.438;5.982;2023-05-10T00:00:16;39.84;34.79;57.21;;
67310;Laerm;65444;51.438;5.982;2023-05-10T00:00:27;37.33;35.03;44.73;;
67310;Laerm;65444;51.438;5.982;2023-05-10T00:00:37;38.55;35.80;54.38;;
67310;Laerm;65444;51.438;5.982;2023-05-10T00:00:47;39.27;36.77;51.65;;
67310;Laerm;65444;51.438;5.982;2023-05-10T00:00:59;39.24;37.39;46.39;;
67310;Laerm;65444;51.438;5.982;2023-05-10T00:01:09;44.95;37.64;68.50;;
67310;Laerm;65444;51.438;5.982;2023-05-10T00:01:20;39.61;37.46;50.07;;
67310;Laerm;65444;51.438;5.982;2023-05-10T00:01:30;39.60;36.71;53.47;;
67310;Laerm;65444;51.438;5.982;2023-05-10T00:01:41;38.99;36.57;49.89;;
67310;Laerm;65444;51.438;5.982;2023-05-10T00:01:51;39.19;36.93;47.10;;
67310;Laerm;65444;51.438;5.982;2023-05-10T00:02:05;40.24;37.70;52.49;;
67310;Laerm;65444;51.438;5.982;2023-05-10T00:02:15;40.23;37.94;55.55;;
67310;Laerm;65444;51.438;5.982;2023-05-10T00:02:26;42.87;38.73;60.32;;
67310;Laerm;65444;51.438;5.982;2023-05-10T00:02:37;43.45;39.64;55.15;;
67310;Laerm;65444;51.438;5.982;2023-05-10T00:02:47;44.66;42.34;54.57;;
67310;Laerm;65444;51.438;5.982;2023-05-10T00:02:58;44.62;42.26;52.29;;
67310;Laerm;65444;51.438;5.982;2023-05-10T00:03:08;45.37;42.65;55.13;;
67310;Laerm;65444;51.438;5.982;2023-05-10T00:03:18;41.76;37.59;58.30;;
67310;Laerm;65444;51.438;5.982;2023-05-10T00:03:29;40.62;36.42;54.81;;
67310;Laerm;65444;51.438;5.982;2023-05-10T00:03:39;38.50;33.91;54.99;;
67310;Laerm;65444;51.438;5.982;2023-05-10T00:03:50;35.89;33.31;45.10;;
67310;Laerm;65444;51.438;5.982;2023-05-10T00:04:01;36.86;33.10;50.99;;
67310;Laerm;65444;51.438;5.982;2023-05-10T00:04:11;36.91;33.38;50.87;;
67310;Laerm;65444;51.438;5.982;2023-05-10T00:04:22;36.68;33.87;48.25;;
67310;Laerm;65444;51.438;5.982;2023-05-10T00:04:32;36.41;33.31;49.53;;
67310;Laerm;65444;51.438;5.982;2023-05-10T00:04:42;35.86;33.17;49.76;;
67310;Laerm;65444;51.438;5.982;2023-05-10T00:04:53;35.57;32.50;49.12;;
67310;Laerm;65444;51.438;5.982;2023-05-10T00:05:03;35.26;32.35;49.58;;
67310;Laerm;65444;51.438;5.982;2023-05-10T00:05:14;36.27;32.44;55.07;;
67310;Laerm;65444;51.438;5.982;2023-05-10T00:05:24;35.53;32.04;49.44;;
67310;Laerm;65444;51.438;5.982;2023-05-10T00:05:34;34.86;32.14;46.68;;
67310;Laerm;65444;51.438;5.982;2023-05-10T00:05:45;34.26;31.82;45.31;;
67310;Laerm;65444;51.438;5.982;2023-05-10T00:05:55;34.31;31.81;46.91;;
67310;Laerm;65444;51.438;5.982;2023-05-10T00:06:06;35.57;32.65;50.05;;
67310;Laerm;65444;51.438;5.982;2023-05-10T00:06:16;34.95;31.93;50.05;;
67310;Laerm;65444;51.438;5.982;2023-05-10T00:06:26;35.58;32.06;51.68;;
67310;Laerm;65444;51.438;5.982;2023-05-10T00:06:37;35.11;31.81;47.30;;
67310;Laerm;65444;51.438;5.982;2023-05-10T00:06:48;34.47;32.23;43.91;;
67310;Laerm;65444;51.438;5.982;2023-05-10T00:06:58;34.97;32.16;45.84;;
67310;Laerm;65444;51.438;5.982;2023-05-10T00:07:08;35.37;32.31;51.71;;
67310;Laerm;65444;51.438;5.982;2023-05-10T00:07:20;34.27;31.43;46.01;;
67310;Laerm;65444;51.438;5.982;2023-05-10T00:07:30;34.94;32.05;46.26;;
67310;Laerm;65444;51.438;5.982;2023-05-10T00:07:41;35.02;32.27;48.17;;
67310;Laerm;65444;51.438;5.982;2023-05-10T00:07:54;34.93;31.22;49.50;;
67310;Laerm;65444;51.438;5.982;2023-05-10T00:08:05;34.97;31.71;49.57;;
67310;Laerm;65444;51.438;5.982;2023-05-10T00:08:15;36.81;33.03;51.51;;
67310;Laerm;65444;51.438;5.982;2023-05-10T00:08:25;38.05;35.36;53.47;;
67310;Laerm;65444;51.438;5.982;2023-05-10T00:08:36;39.24;35.74;51.85;;
67310;Laerm;65444;51.438;5.982;2023-05-10T00:08:46;40.58;38.29;51.01;;
67310;Laerm;65444;51.438;5.982;2023-05-10T00:08:56;41.41;38.65;57.18;;
67310;Laerm;65444;51.438;5.982;2023-05-10T00:09:07;40.12;37.45;47.82;;
67310;Laerm;65444;51.438;5.982;2023-05-10T00:09:17;37.85;34.91;46.23;;
67310;Laerm;65444;51.438;5.982;2023-05-10T00:09:27;37.37;34.69;47.17;;
67310;Laerm;65444;51.438;5.982;2023-05-10T00:09:38;37.31;34.92;46.62;;
67310;Laerm;65444;51.438;5.982;2023-05-10T00:09:48;37.21;34.06;48.68;;
67310;Laerm;65444;51.438;5.982;2023-05-10T00:09:58;36.97;34.04;51.04;;
67310;Laerm;65444;51.438;5.982;2023-05-10T00:10:09;36.79;33.34;49.46;;
67310;Laerm;65444;51.438;5.982;2023-05-10T00:10:19;36.67;33.18;50.50;;
67310;Laerm;65444;51.438;5.982;2023-05-10T00:10:29;35.95;32.30;47.90;;
67310;Laerm;65444;51.438;5.982;2023-05-10T00:10:40;36.01;32.12;51.83;;
67310;Laerm;65444;51.438;5.982;2023-05-10T00:10:51;36.37;32.28;50.80;;
67310;Laerm;65444;51.438;5.982;2023-05-10T00:11:01;35.59;31.54;50.03;;
67310;Laerm;65444;51.438;5.982;2023-05-10T00:11:12;36.81;32.41;52.09;;
67310;Laerm;65444;51.438;5.982;2023-05-10T00:11:22;36.82;31.56;56.14;;
67310;Laerm;65444;51.438;5.982;2023-05-10T00:11:32;35.67;31.37;49.83;;
67310;Laerm;65444;51.438;5.982;2023-05-10T00:11:43;38.34;31.75;53.78;;
67310;Laerm;65444;51.438;5.982;2023-05-10T00:11:53;36.51;31.86;53.05;;
67310;Laerm;65444;51.438;5.982;2023-05-10T00:12:04;37.94;31.28;54.87;;
67310;Laerm;65444;51.438;5.982;2023-05-10T00:12:14;36.70;30.94;53.77;;
67310;Laerm;65444;51.438;5.982;2023-05-10T00:12:24;36.88;31.81;54.20;;
67310;Laerm;65444;51.438;5.982;2023-05-10T00:12:35;35.70;31.51;49.79;;
67310;Laerm;65444;51.438;5.982;2023-05-10T00:12:45;34.89;30.68;49.19;;
67310;Laerm;65444;51.438;5.982;2023-05-10T00:12:55;36.43;30.72;50.05;;
67310;Laerm;65444;51.438;5.982;2023-05-10T00:13:06;35.58;30.68;51.38;;
67310;Laerm;65444;51.438;5.982;2023-05-10T00:13:16;36.85;32.51;51.68;;
67310;Laerm;65444;51.438;5.982;2023-05-10T00:13:26;35.83;32.59;47.33;;
67310;Laerm;65444;51.438;5.982;2023-05-10T00:13:37;34.80;32.34;48.09;;
67310;Laerm;65444;51.438;5.982;2023-05-10T00:13:47;36.91;32.72;53.07;;
67310;Laerm;65444;51.438;5.982;2023-05-10T00:13:57;38.35;34.22;51.29;;
67310;Laerm;65444;51.438;5.982;2023-05-10T00:14:08;40.69;37.01;50.70;;
67310;Laerm;65444;51.438;5.982;2023-05-10T00:14:18;42.48;40.06;48.89;;
67310;Laerm;65444;51.438;5.982;2023-05-10T00:14:29;41.24;39.31;47.45;;
67310;Laerm;65444;51.438;5.982;2023-05-10T00:14:39;39.95;37.03;52.37;;
67310;Laerm;65444;51.438;5.982;2023-05-10T00:14:50;37.66;34.33;52.34;;
67310;Laerm;65444;51.438;5.982;2023-05-10T00:15:00;34.66;31.00;44.49;;
67310;Laerm;65444;51.438;5.982;2023-05-10T00:15:10;32.62;30.42;42.00;;
67310;Laerm;65444;51.438;5.982;2023-05-10T00:15:21;33.08;29.94;48.73;;
67310;Laerm;65444;51.438;5.982;2023-05-10T00:15:31;33.83;30.13;49.93;;
67310;Laerm;65444;51.438;5.982;2023-05-10T00:15:42;32.77;30.36;45.40;;
67310;Laerm;65444;51.438;5.982;2023-05-10T00:15:52;32.38;29.30;47.11;;
67310;Laerm;65444;51.438;5.982;2023-05-10T00:16:03;32.06;29.71;42.13;;
67310;Laerm;65444;51.438;5.982;2023-05-10T00:16:13;32.61;30.22;43.14;;
67310;Laerm;65444;51.438;5.982;2023-05-10T00:16:24;32.15;30.19;40.41;;
67310;Laerm;65444;51.438;5.982;2023-05-10T00:16:35;32.67;30.74;37.42;;
67310;Laerm;65444;51.438;5.982;2023-05-10T00:16:45;32.57;30.37;44.89;;
67310;Laerm;65444;51.438;5.982;2023-05-10T00:16:55;32.90;29.64;47.90;;
67310;Laerm;65444;51.438;5.982;2023-05-10T00:17:06;33.65;30.44;45.13;;
67310;Laerm;65444;51.438;5.982;2023-05-10T00:17:16;33.52;31.61;39.79;;
67310;Laerm;65444;51.438;5.982;2023-05-10T00:17:26;35.67;33.31;44.57;;
67310;Laerm;65444;51.438;5.982;2023-05-10T00:17:37;36.35;33.56;44.66;;
67310;Laerm;65444;51.438;5.982;2023-05-10T00:17:47;39.35;35.50;44.23;;
67310;Laerm;65444;51.438;5.982;2023-05-10T00:17:57;41.61;38.99;44.33;;
67310;Laerm;65444;51.438;5.982;2023-05-10T00:18:08;41.78;38.60;44.92;;
67310;Laerm;65444;51.438;5.982;2023-05-10T00:18:18;39.26;37.40;43.23;;
67310;Laerm;65444;51.438;5.982;2023-05-10T00:18:29;36.29;33.31;42.33;;
67310;Laerm;65444;51.438;5.982;2023-05-10T00:18:39;34.05;31.61;38.90;;
67310;Laerm;65444;51.438;5.982;2023-05-10T00:18:50;31.54;29.79;38.38;;
67310;Laerm;65444;51.438;5.982;2023-05-10T00:19:00;31.33;29.33;40.41;;
67310;Laerm;65444;51.438;5.982;2023-05-10T00:19:11;32.00;29.85;38.99;;
67310;Laerm;65444;51.438;5.982;2023-05-10T00:19:22;31.87;29.81;39.51;;
67310;Laerm;65444;51.438;5.982;2023-05-10T00:19:32;34.02;30.80;41.75;;
67310;Laerm;65444;51.438;5.982;2023-05-10T00:19:43;33.90;31.64;38.15;;
67310;Laerm;65444;51.438;5.982;2023-05-10T00:19:53;34.39;32.00;40.48;;
67310;Laerm;65444;51.438;5.982;2023-05-10T00:20:04;35.44;31.02;40.10;;
67310;Laerm;65444;51.438;5.982;2023-05-10T00:20:15;33.49;30.95;48.90;;
67310;Laerm;65444;51.438;5.982;2023-05-10T00:20:25;33.64;31.16;39.46;;
67310;Laerm;65444;51.438;5.982;2023-05-10T00:20:36;34.45;32.67;40.63;;
67310;Laerm;65444;51.438;5.982;2023-05-10T00:20:46;37.93;34.03;43.14;;
67310;Laerm;65444;51.438;5.982;2023-05-10T00:20:56;39.69;37.31;44.16;;
67310;Laerm;65444;51.438;5.982;2023-05-10T00:21:07;39.46;36.84;44.24;;
67310;Laerm;65444;51.438;5.982;2023-05-10T00:21:17;43.46;39.72;47.01;;
67310;Laerm;65444;51.438;5.982;2023-05-10T00:21:28;46.29;44.07;48.15;;
67310;Laerm;65444;51.438;5.982;2023-05-10T00:21:38;45.25;42.25;47.99;;
67310;Laerm;65444;51.438;5.982;2023-05-10T00:21:48;42.58;40.24;44.74;;
67310;Laerm;65444;51.438;5.982;2023-05-10T00:21:59;39.71;32.27;44.20;;
67310;Laerm;65444;51.438;5.982;2023-05-10T00:22:09;32.63;30.27;41.07;;
67310;Laerm;65444;51.438;5.982;2023-05-10T00:22:20;31.26;29.21;40.75;;
67310;Laerm;65444;51.438;5.982;2023-05-10T00:22:31;31.36;28.89;43.02;;
67310;Laerm;65444;51.438;5.982;2023-05-10T00:22:41;31.40;29.79;39.73;;
67310;Laerm;65444;51.438;5.982;2023-05-10T00:22:52;31.99;28.92;49.16;;
67310;Laerm;65444;51.438;5.982;2023-05-10T00:23:02;30.87;29.14;38.34;;
67310;Laerm;65444;51.438;5.982;2023-05-10T00:23:13;32.05;29.89;36.84;;
67310;Laerm;65444;51.438;5.982;2023-05-10T00:23:23;31.22;29.11;39.51;;
67310;Laerm;65444;51.438;5.982;2023-05-10T00:23:33;31.08;29.22;39.40;;
67310;Laerm;65444;51.438;5.982;2023-05-10T00:23:44;31.70;29.79;40.81;;
67310;Laerm;65444;51.438;5.982;2023-05-10T00:23:54;31.34;29.57;37.05;;
67310;Laerm;65444;51.438;5.982;2023-05-10T00:24:05;31.10;29.01;42.35;;
67310;Laerm;65444;51.438;5.982;2023-05-10T00:24:15;31.76;28.77;41.38;;
67310;Laerm;65444;51.438;5.982;2023-05-10T00:24:26;31.17;29.29;40.84;;
67310;Laerm;65444;51.438;5.982;2023-05-10T00:24:36;31.83;28.99;38.14;;
67310;Laerm;65444;51.438;5.982;2023-05-10T00:24:46;32.08;29.63;49.60;;
67310;Laerm;65444;51.438;5.982;2023-05-10T00:24:57;31.29;29.08;44.34;;
67310;Laerm;65444;51.438;5.982;2023-05-10T00:25:08;31.60;29.13;43.16;;
67310;Laerm;65444;51.438;5.982;2023-05-10T00:25:18;31.98;30.10;39.33;;
67310;Laerm;65444;51.438;5.982;2023-05-10T00:25:28;36.50;32.03;40.12;;
67310;Laerm;65444;51.438;5.982;2023-05-10T00:25:39;38.32;35.90;44.89;;
67310;Laerm;65444;51.438;5.982;2023-05-10T00:25:49;38.76;37.34;41.95;;
67310;Laerm;65444;51.438;5.982;2023-05-10T00:26:00;39.95;37.67;43.05;;
67310;Laerm;65444;51.438;5.982;2023-05-10T00:26:10;39.05;36.94;42.67;;
67310;Laerm;65444;51.438;5.982;2023-05-10T00:26:20;36.64;33.44;41.34;;
67310;Laerm;65444;51.438;5.982;2023-05-10T00:26:31;35.80;33.89;38.65;;
67310;Laerm;65444;51.438;5.982;2023-05-10T00:26:41;37.08;34.27;41.13;;
67310;Laerm;65444;51.438;5.982;2023-05-10T00:26:52;36.48;34.13;40.38;;
67310;Laerm;65444;51.438;5.982;2023-05-10T00:27:02;35.45;32.09;44.97;;
67310;Laerm;65444;51.438;5.982;2023-05-10T00:27:14;34.03;32.03;36.57;;
67310;Laerm;65444;51.438;5.982;2023-05-10T00:27:24;33.27;31.59;37.05;;
67310;Laerm;65444;51.438;5.982;2023-05-10T00:27:34;33.60;31.51;36.16;;
67310;Laerm;65444;51.438;5.982;2023-05-10T00:27:45;33.66;32.05;37.40;;
67310;Laerm;65444;51.438;5.982;2023-05-10T00:27:55;36.06;31.95;44.36;;
67310;Laerm;65444;51.438;5.982;2023-05-10T00:28:07;34.36;32.21;48.19;;
67310;Laerm;65444;51.438;5.982;2023-05-10T00:28:17;33.87;30.88;45.96;;
67310;Laerm;65444;51.438;5.982;2023-05-10T00:28:28;31.68;28.96;38.11;;
67310;Laerm;65444;51.438;5.982;2023-05-10T00:28:38;33.38;29.64;53.72;;
67310;Laerm;65444;51.438;5.982;2023-05-10T00:28:49;31.69;29.83;42.58;;
67310;Laerm;65444;51.438;5.982;2023-05-10T00:28:59;31.35;29.62;39.19;;
67310;Laerm;65444;51.438;5.982;2023-05-10T00:29:09;32.36;30.43;43.98;;
67310;Laerm;65444;51.438;5.982;2023-05-10T00:29:20;31.56;29.71;38.82;;
67310;Laerm;65444;51.438;5.982;2023-05-10T00:29:30;31.79;30.09;37.39;;
67310;Laerm;65444;51.438;5.982;2023-05-10T00:29:41;32.77;30.75;40.54;;
67310;Laerm;65444;51.438;5.982;2023-05-10T00:29:52;34.64;32.01;40.25;;
67310;Laerm;65444;51.438;5.982;2023-05-10T00:30:02;35.38;32.16;44.85;;
67310;Laerm;65444;51.438;5.982;2023-05-10T00:30:12;35.51;32.56;40.28;;
67310;Laerm;65444;51.438;5.982;2023-05-10T00:30:23;33.78;31.59;37.98;;
67310;Laerm;65444;51.438;5.982;2023-05-10T00:30:33;36.16;33.82;39.73;;
67310;Laerm;65444;51.438;5.982;2023-05-10T00:30:44;36.54;34.80;39.41;;
67310;Laerm;65444;51.438;5.982;2023-05-10T00:30:54;36.63;34.62;39.85;;
67310;Laerm;65444;51.438;5.982;2023-05-10T00:31:05;41.60;37.06;48.59;;
67310;Laerm;65444;51.438;5.982;2023-05-10T00:31:15;46.69;43.11;49.73;;
67310;Laerm;65444;51.438;5.982;2023-05-10T00:31:26;48.75;45.90;51.29;;
67310;Laerm;65444;51.438;5.982;2023-05-10T00:31:36;47.79;46.02;49.26;;
67310;Laerm;65444;51.438;5.982;2023-05-10T00:31:46;45.09;41.36;50.75;;
67310;Laerm;65444;51.438;5.982;2023-05-10T00:31:57;41.40;39.74;43.18;;
67310;Laerm;65444;51.438;5.982;2023-05-10T00:32:07;38.09;32.80;42.43;;
67310;Laerm;65444;51.438;5.982;2023-05-10T00:32:17;32.42;29.96;37.82;;
67310;Laerm;65444;51.438;5.982;2023-05-10T00:32:28;31.36;29.50;40.03;;
67310;Laerm;65444;51.438;5.982;2023-05-10T00:32:38;31.06;28.73;37.34;;
67310;Laerm;65444;51.438;5.982;2023-05-10T00:32:49;31.32;29.08;42.51;;
67310;Laerm;65444;51.438;5.982;2023-05-10T00:32:59;31.10;29.09;41.63;;
67310;Laerm;65444;51.438;5.982;2023-05-10T00:33:10;31.24;29.50;43.62;;
67310;Laerm;65444;51.438;5.982;2023-05-10T00:33:21;30.57;28.59;41.08;;
67310;Laerm;65444;51.438;5.982;2023-05-10T00:33:32;29.95;28.39;34.20;;
67310;Laerm;65444;51.438;5.982;2023-05-10T00:33:42;31.10;29.36;40.28;;
67310;Laerm;65444;51.438;5.982;2023-05-10T00:33:53;30.88;28.63;46.04;;
67310;Laerm;65444;51.438;5.982;2023-05-10T00:34:03;30.78;29.15;41.81;;
67310;Laerm;65444;51.438;5.982;2023-05-10T00:34:13;30.90;29.00;35.19;;
67310;Laerm;65444;51.438;5.982;2023-05-10T00:34:24;32.14;29.60;40.43;;
67310;Laerm;65444;51.438;5.982;2023-05-10T00:34:34;33.62;29.33;42.33;;
67310;Laerm;65444;51.438;5.982;2023-05-10T00:34:45;33.13;29.62;43.00;;
67310;Laerm;65444;51.438;5.982;2023-05-10T00:34:55;31.24;29.08;36.92;;
67310;Laerm;65444;51.438;5.982;2023-05-10T00:35:06;32.34;29.64;41.93;;
67310;Laerm;65444;51.438;5.982;2023-05-10T00:35:16;32.23;30.07;38.75;;
67310;Laerm;65444;51.438;5.982;2023-05-10T00:35:27;31.82;29.17;43.92;;
67310;Laerm;65444;51.438;5.982;2023-05-10T00:35:37;33.96;29.25;40.60;;
67310;Laerm;65444;51.438;5.982;2023-05-10T00:35:48;31.84;29.68;43.01;;
67310;Laerm;65444;51.438;5.982;2023-05-10T00:35:58;30.96;29.38;38.06;;
67310;Laerm;65444;51.438;5.982;2023-05-10T00:36:08;31.67;29.26;37.99;;
67310;Laerm;65444;51.438;5.982;2023-05-10T00:36:19;31.41;29.88;37.26;;
67310;Laerm;65444;51.438;5.982;2023-05-10T00:36:29;30.79;29.11;36.40;;
67310;Laerm;65444;51.438;5.982;2023-05-10T00:36:41;31.95;29.61;38.62;;
67310;Laerm;65444;51.438;5.982;2023-05-10T00:36:51;31.18;29.27;37.77;;
67310;Laerm;65444;51.438;5.982;2023-05-10T00:37:01;32.76;30.36;44.37;;
67310;Laerm;65444;51.438;5.982;2023-05-10T00:37:12;32.01;30.29;37.85;;
67310;Laerm;65444;51.438;5.982;2023-05-10T00:37:23;32.23;28.99;38.14;;
67310;Laerm;65444;51.438;5.982;2023-05-10T00:37:33;32.57;30.51;38.51;;
67310;Laerm;65444;51.438;5.982;2023-05-10T00:37:43;32.93;30.62;43.99;;
67310;Laerm;65444;51.438;5.982;2023-05-10T00:37:54;32.24;29.57;38.81;;
67310;Laerm;65444;51.438;5.982;2023-05-10T00:38:04;32.25;29.81;40.24;;
67310;Laerm;65444;51.438;5.982;2023-05-10T00:38:15;31.60;29.89;36.10;;
67310;Laerm;65444;51.438;5.982;2023-05-10T00:38:25;32.79;29.82;46.32;;
67310;Laerm;65444;51.438;5.982;2023-05-10T00:38:35;31.72;29.41;35.67;;
67310;Laerm;65444;51.438;5.982;2023-05-10T00:38:46;31.94;29.79;36.73;;
67310;Laerm;65444;51.438;5.982;2023-05-10T00:38:56;31.19;29.70;37.02;;
67310;Laerm;65444;51.438;5.982;2023-05-10T00:39:06;31.58;29.37;39.50;;
67310;Laerm;65444;51.438;5.982;2023-05-10T00:39:17;31.98;29.76;37.47;;
67310;Laerm;65444;51.438;5.982;2023-05-10T00:39:28;31.76;29.22;46.88;;
67310;Laerm;65444;51.438;5.982;2023-05-10T00:39:38;30.68;29.02;36.59;;
67310;Laerm;65444;51.438;5.982;2023-05-10T00:39:49;30.81;29.14;36.59;;
67310;Laerm;65444;51.438;5.982;2023-05-10T00:39:59;32.14;29.71;44.71;;
67310;Laerm;65444;51.438;5.982;2023-05-10T00:40:09;33.02;30.38;43.73;;
67310;Laerm;65444;51.438;5.982;2023-05-10T00:40:20;33.90;29.78;53.23;;
67310;Laerm;65444;51.438;5.982;2023-05-10T00:40:30;31.16;29.42;38.58;;
67310;Laerm;65444;51.438;5.982;2023-05-10T00:40:41;31.27;29.62;35.85;;
67310;Laerm;65444;51.438;5.982;2023-05-10T00:40:51;30.58;28.13;38.69;;
67310;Laerm;65444;51.438;5.982;2023-05-10T00:41:02;30.31;28.45;41.12;;
67310;Laerm;65444;51.438;5.982;2023-05-10T00:41:12;30.61;29.06;38.59;;
67310;Laerm;65444;51.438;5.982;2023-05-10T00:41:23;30.46;28.78;38.91;;
67310;Laerm;65444;51.438;5.982;2023-05-10T00:41:33;30.73;28.87;38.98;;
67310;Laerm;65444;51.438;5.982;2023-05-10T00:41:43;31.18;29.19;39.83;;
67310;Laerm;65444;51.438;5.982;2023-05-10T00:41:54;32.07;28.91;41.39;;
67310;Laerm;65444;51.438;5.982;2023-05-10T00:42:04;34.23;29.18;45.88;;
67310;Laerm;65444;51.438;5.982;2023-05-10T00:42:14;31.29;29.33;38.11;;
67310;Laerm;65444;51.438;5.982;2023-05-10T00:42:25;30.36;28.58;40.61;;
67310;Laerm;65444;51.438;5.982;2023-05-10T00:42:35;30.79;28.46;36.95;;
67310;Laerm;65444;51.438;5.982;2023-05-10T00:42:46;31.00;29.02;44.13;;
67310;Laerm;65444;51.438;5.982;2023-05-10T00:42:56;30.21;28.56;39.54;;
67310;Laerm;65444;51.438;5.982;2023-05-10T00:43:07;31.00;28.58;47.72;;
67310;Laerm;65444;51.438;5.982;2023-05-10T00:43:17;30.75;28.79;38.85;;
67310;Laerm;65444;51.438;5.982;2023-05-10T00:43:27;31.18;28.06;48.13;;
67310;Laerm;65444;51.438;5.982;2023-05-10T00:43:38;30.94;28.71;42.48;;
67310;Laerm;65444;51.438;5.982;2023-05-10T00:43:48;30.66;28.77;37.66;;
67310;Laerm;65444;51.438;5.982;2023-05-10T00:43:58;30.73;28.19;46.31;;
67310;Laerm;65444;51.438;5.982;2023-05-10T00:44:09;31.10;28.55;44.57;;
67310;Laerm;65444;51.438;5.982;2023-05-10T00:44:19;30.83;28.68;40.81;;
67310;Laerm;65444;51.438;5.982;2023-05-10T00:44:30;30.19;28.18;42.59;;
67310;Laerm;65444;51.438;5.982;2023-05-10T00:44:41;30.67;29.16;39.05;;
67310;Laerm;65444;51.438;5.982;2023-05-10T00:44:51;30.97;28.07;45.15;;
67310;Laerm;65444;51.438;5.982;2023-05-10T00:45:02;30.70;28.91;41.30;;
67310;Laerm;65444;51.438;5.982;2023-05-10T00:45:12;33.55;30.11;37.81;;
67310;Laerm;65444;51.438;5.982;2023-05-10T00:45:23;38.38;35.68;42.42;;
67310;Laerm;65444;51.438;5.982;2023-05-10T00:45:33;41.58;39.18;43.68;;
67310;Laerm;65444;51.438;5.982;2023-05-10T00:45:45;43.05;39.29;46.56;;
67310;Laerm;65444;51.438;5.982;2023-05-10T00:45:56;43.08;40.10;46.97;;
67310;Laerm;65444;51.438;5.982;2023-05-10T00:46:06;40.81;38.11;48.06;;
67310;Laerm;65444;51.438;5.982;2023-05-10T00:46:17;40.59;38.07;44.95;;
67310;Laerm;65444;51.438;5.982;2023-05-10T00:46:28;40.83;37.14;44.90;;
67310;Laerm;65444;51.438;5.982;2023-05-10T00:46:38;39.77;36.14;45.25;;
67310;Laerm;65444;51.438;5.982;2023-05-10T00:46:49;42.21;39.53;44.72;;
67310;Laerm;65444;51.438;5.982;2023-05-10T00:46:59;40.62;37.17;45.70;;
67310;Laerm;65444;51.438;5.982;2023-05-10T00:47:10;38.87;36.46;42.61;;
67310;Laerm;65444;51.438;5.982;2023-05-10T00:47:22;38.45;35.94;45.87;;
67310;Laerm;65444;51.438;5.982;2023-05-10T00:47:32;35.48;31.64;44.33;;
67310;Laerm;65444;51.438;5.982;2023-05-10T00:47:43;33.80;31.18;43.56;;
67310;Laerm;65444;51.438;5.982;2023-05-10T00:47:53;34.01;30.91;47.20;;
67310;Laerm;65444;51.438;5.982;2023-05-10T00:48:05;32.96;30.33;44.98;;
67310;Laerm;65444;51.438;5.982;2023-05-10T00:48:15;34.68;30.77;46.00;;
67310;Laerm;65444;51.438;5.982;2023-05-10T00:48:26;32.09;29.70;42.94;;
67310;Laerm;65444;51.438;5.982;2023-05-10T00:48:36;33.76;29.91;43.74;;
67310;Laerm;65444;51.438;5.982;2023-05-10T00:48:46;32.53;30.21;40.14;;
67310;Laerm;65444;51.438;5.982;2023-05-10T00:48:57;31.50;29.43;36.16;;
67310;Laerm;65444;51.438;5.982;2023-05-10T00:49:08;31.19;29.12;40.60;;
67310;Laerm;65444;51.438;5.982;2023-05-10T00:49:18;31.57;29.53;37.25;;
67310;Laerm;65444;51.438;5.982;2023-05-10T00:49:29;31.06;28.99;37.98;;
67310;Laerm;65444;51.438;5.982;2023-05-10T00:49:39;32.75;29.32;50.80;;
67310;Laerm;65444;51.438;5.982;2023-05-10T00:49:50;32.49;29.85;41.56;;
67310;Laerm;65444;51.438;5.982;2023-05-10T00:50:01;30.91;29.13;38.93;;
67310;Laerm;65444;51.438;5.982;2023-05-10T00:50:12;31.46;29.38;42.05;;
67310;Laerm;65444;51.438;5.982;2023-05-10T00:50:23;31.13;29.38;42.98;;
67310;Laerm;65444;51.438;5.982;2023-05-10T00:50:34;30.62;28.46;44.12;;
67310;Laerm;65444;51.438;5.982;2023-05-10T00:50:44;31.17;29.30;44.77;;
67310;Laerm;65444;51.438;5.982;2023-05-10T00:50:55;30.10;28.06;41.87;;
67310;Laerm;65444;51.438;5.982;2023-05-10T00:51:05;30.14;28.31;34.67;;
67310;Laerm;65444;51.438;5.982;2023-05-10T00:51:16;31.95;29.66;44.94;;
67310;Laerm;65444;51.438;5.982;2023-05-10T00:51:26;31.09;29.10;42.07;;
67310;Laerm;65444;51.438;5.982;2023-05-10T00:51:37;32.93;29.89;44.51;;
67310;Laerm;65444;51.438;5.982;2023-05-10T00:51:47;39.94;33.46;45.36;;
67310;Laerm;65444;51.438;5.982;2023-05-10T00:51:58;43.75;41.11;48.40;;
67310;Laerm;65444;51.438;5.982;2023-05-10T00:52:08;44.27;42.78;45.79;;
67310;Laerm;65444;51.438;5.982;2023-05-10T00:52:19;45.42;43.63;47.67;;
67310;Laerm;65444;51.438;5.982;2023-05-10T00:52:29;44.27;41.15;46.88;;
67310;Laerm;65444;51.438;5.982;2023-05-10T00:52:40;42.34;39.91;44.93;;
67310;Laerm;65444;51.438;5.982;2023-05-10T00:52:51;41.40;38.62;44.23;;
67310;Laerm;65444;51.438;5.982;2023-05-10T00:53:02;40.92;39.14;44.25;;
67310;Laerm;65444;51.438;5.982;2023-05-10T00:53:12;41.42;38.30;55.04;;
67310;Laerm;65444;51.438;5.982;2023-05-10T00:53:23;42.98;40.70;49.41;;
67310;Laerm;65444;51.438;5.982;2023-05-10T00:53:34;43.90;40.99;48.72;;
67310;Laerm;65444;51.438;5.982;2023-05-10T00:53:47;42.40;35.74;48.18;;
67310;Laerm;65444;51.438;5.982;2023-05-10T00:53:58;35.33;31.74;42.43;;
67310;Laerm;65444;51.438;5.982;2023-05-10T00:54:10;34.91;32.43;39.72;;
67310;Laerm;65444;51.438;5.982;2023-05-10T00:54:21;34.63;31.16;48.07;;
67310;Laerm;65444;51.438;5.982;2023-05-10T00:54:31;34.14;31.54;41.65;;
67310;Laerm;65444;51.438;5.982;2023-05-10T00:54:42;34.06;31.10;39.09;;
67310;Laerm;65444;51.438;5.982;2023-05-10T00:54:52;34.39;31.71;45.58;;
67310;Laerm;65444;51.438;5.982;2023-05-10T00:55:03;35.22;32.17;39.88;;
67310;Laerm;65444;51.438;5.982;2023-05-10T00:55:14;34.87;32.30;45.38;;
67310;Laerm;65444;51.438;5.982;2023-05-10T00:55:25;33.92;31.52;40.32;;
67310;Laerm;65444;51.438;5.982;2023-05-10T00:55:35;33.88;31.03;41.71;;
67310;Laerm;65444;51.438;5.982;2023-05-10T00:55:46;36.35;32.21;44.35;;
67310;Laerm;65444;51.438;5.982;2023-05-10T00:55:56;33.10;30.55;37.22;;
67310;Laerm;65444;51.438;5.982;2023-05-10T00:56:07;31.93;30.25;36.63;;
67310;Laerm;65444;51.438;5.982;2023-05-10T00:56:17;31.79;30.02;35.63;;
67310;Laerm;65444;51.438;5.982;2023-05-10T00:56:28;31.31;29.07;36.36;;
67310;Laerm;65444;51.438;5.982;2023-05-10T00:56:39;32.99;31.43;36.93;;
67310;Laerm;65444;51.438;5.982;2023-05-10T00:56:50;33.57;30.25;40.25;;
67310;Laerm;65444;51.438;5.982;2023-05-10T00:57:01;33.08;30.66;38.19;;
67310;Laerm;65444;51.438;5.982;2023-05-10T00:57:13;34.22;31.51;42.82;;
67310;Laerm;65444;51.438;5.982;2023-05-10T00:57:23;32.57;30.16;42.57;;
67310;Laerm;65444;51.438;5.982;2023-05-10T00:57:34;33.02;30.80;38.38;;
67310;Laerm;65444;51.438;5.982;2023-05-10T00:57:45;31.67;30.20;35.00;;
67310;Laerm;65444;51.438;5.982;2023-05-10T00:57:55;31.87;29.99;37.55;;
67310;Laerm;65444;51.438;5.982;2023-05-10T00:58:06;33.56;31.46;37.03;;
67310;Laerm;65444;51.438;5.982;2023-05-10T00:58:16;33.28;30.50;41.02;;
67310;Laerm;65444;51.438;5.982;2023-05-10T00:58:27;32.36;30.23;39.13;;
67310;Laerm;65444;51.438;5.982;2023-05-10T00:58:39;34.45;31.08;53.67;;
67310;Laerm;65444;51.438;5.982;2023-05-10T00:58:49;32.85;30.78;40.15;;
67310;Laerm;65444;51.438;5.982;2023-05-10T00:58:59;31.94;30.43;34.74;;